Time,TemperatureF,DewpointF,PressureIn,WindDirection,WindDirectionDegrees,WindSpeedMPH,WindSpeedGustMPH,Humidity,HourlyPrecipIn,Conditions,Clouds,dailyrainin,SoftwareType,DateUTC
2013-09-25 00:06:00,60.0,58.0,29.81,NE,49,0.0,0.0,93,0.00,,,0.00,weatherlink.com 1.10,2013-09-25 05:06:00,
2013-09-25 00:21:00,59.8,58.0,29.81,NE,49,0.0,0.0,93,0.00,,,0.00,weatherlink.com 1.10,2013-09-25 05:21:00,
2013-09-25 00:36:00,59.4,58.0,29.81,NE,49,0.0,0.0,94,0.00,,,0.00,weatherlink.com 1.10,2013-09-25 05:36:00,
2013-09-25 00:51:00,59.1,57.0,29.81,NE,49,0.0,1.0,94,0.00,,,0.00,weatherlink.com 1.10,2013-09-25 05:51:00,
2013-09-25 01:06:00,59.1,57.0,29.80,NE,49,0.0,0.0,94,0.00,,,0.00,weatherlink.com 1.10,2013-09-25 06:06:00,
2013-09-25 01:21:00,59.0,57.0,29.80,NE,49,0.0,0.0,94,0.01,,,0.01,weatherlink.com 1.10,2013-09-25 06:21:00,
2013-09-25 01:36:00,59.0,57.0,29.80,NE,49,0.0,0.0,94,0.01,,,0.01,weatherlink.com 1.10,2013-09-25 06:36:00,
2013-09-25 01:51:00,58.9,57.0,29.80,NE,49,0.0,0.0,94,0.01,,,0.01,weatherlink.com 1.10,2013-09-25 06:51:00,
2013-09-25 02:06:00,58.8,57.0,29.79,NE,49,0.0,0.0,95,0.01,,,0.01,weatherlink.com 1.10,2013-09-25 07:06:00,
2013-09-25 02:21:00,58.8,57.0,29.79,NE,49,0.0,0.0,94,0.00,,,0.01,weatherlink.com 1.10,2013-09-25 07:21:00,
2013-09-25 02:36:00,58.5,57.0,29.80,NE,49,0.0,0.0,94,0.00,,,0.01,weatherlink.com 1.10,2013-09-25 07:36:00,
2013-09-25 02:51:00,58.1,56.0,29.79,NE,49,0.0,0.0,94,0.00,,,0.01,weatherlink.com 1.10,2013-09-25 07:51:00,
2013-09-25 03:06:00,57.9,56.0,29.80,NE,49,0.0,0.0,94,0.00,,,0.01,weatherlink.com 1.10,2013-09-25 08:06:00,
2013-09-25 03:21:00,58.1,57.0,29.79,NE,49,0.0,0.0,95,0.00,,,0.01,weatherlink.com 1.10,2013-09-25 08:21:00,
2013-09-25 03:36:00,58.2,57.0,29.79,NE,49,0.0,0.0,95,0.00,,,0.01,weatherlink.com 1.10,2013-09-25 08:36:00,
2013-09-25 03:51:00,58.4,57.0,29.79,NE,49,0.0,0.0,95,0.00,,,0.01,weatherlink.com 1.10,2013-09-25 08:51:00,
2013-09-25 04:06:00,58.6,57.0,29.79,NE,49,0.0,0.0,95,0.00,,,0.01,weatherlink.com 1.10,2013-09-25 09:06:00,
2013-09-25 04:21:00,58.9,58.0,29.79,NE,49,0.0,0.0,95,0.00,,,0.01,weatherlink.com 1.10,2013-09-25 09:21:00,
2013-09-25 04:36:00,59.3,58.0,29.79,NE,49,0.0,0.0,95,0.00,,,0.01,weatherlink.com 1.10,2013-09-25 09:36:00,
2013-09-25 04:51:00,59.7,58.0,29.79,NE,49,0.0,0.0,95,0.00,,,0.01,weatherlink.com 1.10,2013-09-25 09:51:00,
2013-09-25 05:06:00,60.1,59.0,29.79,NE,49,0.0,0.0,95,0.00,,,0.01,weatherlink.com 1.10,2013-09-25 10:06:00,
2013-09-25 05:21:00,60.4,59.0,29.79,NE,49,0.0,0.0,95,0.00,,,0.01,weatherlink.com 1.10,2013-09-25 10:21:00,
2013-09-25 05:36:00,60.9,60.0,29.79,NE,49,0.0,0.0,95,0.00,,,0.01,weatherlink.com 1.10,2013-09-25 10:36:00,
2013-09-25 05:51:00,61.2,60.0,29.79,NE,49,0.0,1.0,95,0.00,,,0.01,weatherlink.com 1.10,2013-09-25 10:51:00,
2013-09-25 06:06:00,61.4,60.0,29.80,NE,49,0.0,0.0,95,0.00,,,0.01,weatherlink.com 1.10,2013-09-25 11:06:00,
2013-09-25 06:21:00,61.5,60.0,29.80,NE,49,0.0,0.0,95,0.00,,,0.01,weatherlink.com 1.10,2013-09-25 11:21:00,
2013-09-25 06:36:00,61.7,60.0,29.80,NE,49,0.0,0.0,95,0.00,,,0.01,weatherlink.com 1.10,2013-09-25 11:36:00,
2013-09-25 06:51:00,61.8,60.0,29.80,NE,49,0.0,0.0,95,0.00,,,0.01,weatherlink.com 1.10,2013-09-25 11:51:00,
2013-09-25 07:06:00,62.0,61.0,29.81,NE,49,0.0,0.0,95,0.00,,,0.01,weatherlink.com 1.10,2013-09-25 12:06:00,
2013-09-25 07:21:00,62.1,61.0,29.81,NE,49,0.0,0.0,95,0.00,,,0.01,weatherlink.com 1.10,2013-09-25 12:21:00,
2013-09-25 07:36:00,62.5,61.0,29.81,NE,49,0.0,0.0,95,0.00,,,0.01,weatherlink.com 1.10,2013-09-25 12:36:00,
2013-09-25 07:51:00,63.0,62.0,29.82,NE,49,0.0,2.0,96,0.00,,,0.01,weatherlink.com 1.10,2013-09-25 12:51:00,
2013-09-25 08:06:00,63.4,62.0,29.82,NE,49,0.0,2.0,95,0.00,,,0.01,weatherlink.com 1.10,2013-09-25 13:06:00,
2013-09-25 08:21:00,64.0,63.0,29.82,NE,49,0.0,2.0,95,0.00,,,0.01,weatherlink.com 1.10,2013-09-25 13:21:00,
2013-09-25 08:36:00,64.6,63.0,29.82,NE,49,0.0,2.0,95,0.00,,,0.01,weatherlink.com 1.10,2013-09-25 13:36:00,
2013-09-25 08:51:00,65.2,64.0,29.82,NE,49,1.0,3.0,95,0.00,,,0.01,weatherlink.com 1.10,2013-09-25 13:51:00,
2013-09-25 09:06:00,65.8,64.0,29.82,NE,45,1.0,3.0,95,0.00,,,0.01,weatherlink.com 1.10,2013-09-25 14:06:00,
2013-09-25 09:22:00,66.4,65.0,29.82,NE,34,0.0,2.0,95,0.00,,,0.01,weatherlink.com 1.10,2013-09-25 14:22:00,
2013-09-25 09:37:00,67.1,66.0,29.82,NE,42,0.0,5.0,95,0.00,,,0.01,weatherlink.com 1.10,2013-09-25 14:37:00,
2013-09-25 09:52:00,67.7,66.0,29.82,NE,34,3.0,3.0,95,0.00,,,0.01,weatherlink.com 1.10,2013-09-25 14:52:00,
2013-09-25 10:07:00,68.2,67.0,29.83,NE,41,0.0,4.0,95,0.00,,,0.01,weatherlink.com 1.10,2013-09-25 15:07:00,
2013-09-25 10:22:00,68.7,67.0,29.83,NE,38,0.0,3.0,95,0.00,,,0.01,weatherlink.com 1.10,2013-09-25 15:22:00,
2013-09-25 10:37:00,69.3,67.0,29.83,NE,40,2.0,3.0,93,0.00,,,0.01,weatherlink.com 1.10,2013-09-25 15:37:00,
2013-09-25 10:52:00,69.8,68.0,29.84,NE,40,0.0,3.0,93,0.00,,,0.01,weatherlink.com 1.10,2013-09-25 15:52:00,
2013-09-25 11:07:00,70.6,68.0,29.84,NE,40,0.0,0.0,92,0.00,,,0.01,weatherlink.com 1.10,2013-09-25 16:07:00,
2013-09-25 11:22:00,71.0,68.0,29.84,SSE,159,0.0,2.0,91,0.00,,,0.01,weatherlink.com 1.10,2013-09-25 16:22:00,
2013-09-25 11:37:00,71.9,68.0,29.83,South,182,0.0,4.0,88,0.00,,,0.01,weatherlink.com 1.10,2013-09-25 16:37:00,
2013-09-25 11:52:00,72.8,68.0,29.83,NE,45,0.0,3.0,86,0.00,,,0.01,weatherlink.com 1.10,2013-09-25 16:52:00,
2013-09-25 12:07:00,73.6,68.0,29.82,NW,322,0.0,5.0,83,0.00,,,0.01,weatherlink.com 1.10,2013-09-25 17:07:00,
2013-09-25 12:22:00,74.1,69.0,29.82,NE,46,2.0,4.0,83,0.00,,,0.01,weatherlink.com 1.10,2013-09-25 17:22:00,
2013-09-25 12:37:00,74.5,67.0,29.82,NNW,341,0.0,6.0,78,0.00,,,0.01,weatherlink.com 1.10,2013-09-25 17:37:00,
2013-09-25 12:52:00,74.0,68.0,29.82,NE,39,0.0,4.0,81,0.00,,,0.01,weatherlink.com 1.10,2013-09-25 17:52:00,
2013-09-25 13:07:00,74.2,68.0,29.81,NE,40,1.0,5.0,82,0.00,,,0.01,weatherlink.com 1.10,2013-09-25 18:07:00,
2013-09-25 13:22:00,74.8,68.0,29.81,NNW,334,5.0,6.0,79,0.00,,,0.01,weatherlink.com 1.10,2013-09-25 18:22:00,
2013-09-25 13:37:00,76.2,68.0,29.81,East,91,1.0,2.0,76,0.00,,,0.01,weatherlink.com 1.10,2013-09-25 18:37:00,
2013-09-25 13:52:00,76.0,68.0,29.80,NE,50,3.0,8.0,76,0.00,,,0.01,weatherlink.com 1.10,2013-09-25 18:52:00,
2013-09-25 14:07:00,76.3,69.0,29.80,North,4,4.0,5.0,77,0.00,,,0.01,weatherlink.com 1.10,2013-09-25 19:07:00,
2013-09-25 14:22:00,76.4,67.0,29.79,NE,38,3.0,8.0,73,0.00,,,0.01,weatherlink.com 1.10,2013-09-25 19:22:00,
2013-09-25 14:37:00,76.7,67.0,29.79,NE,53,3.0,5.0,73,0.00,,,0.01,weatherlink.com 1.10,2013-09-25 19:37:00,
2013-09-25 14:52:00,77.9,68.0,29.79,NNE,31,0.0,7.0,71,0.00,,,0.01,weatherlink.com 1.10,2013-09-25 19:52:00,
2013-09-25 15:07:00,78.0,68.0,29.79,NE,47,0.0,9.0,71,0.00,,,0.01,weatherlink.com 1.10,2013-09-25 20:07:00,
2013-09-25 15:22:00,78.9,67.0,29.79,NE,55,0.0,7.0,68,0.00,,,0.01,weatherlink.com 1.10,2013-09-25 20:22:00,
2013-09-25 15:38:00,79.1,67.0,29.79,NE,46,3.0,6.0,67,0.00,,,0.01,weatherlink.com 1.10,2013-09-25 20:38:00,
2013-09-25 15:53:00,79.3,67.0,29.79,NE,44,0.0,3.0,66,0.00,,,0.01,weatherlink.com 1.10,2013-09-25 20:53:00,
2013-09-25 16:08:00,78.3,67.0,29.79,NE,42,1.0,7.0,69,0.00,,,0.01,weatherlink.com 1.10,2013-09-25 21:08:00,
2013-09-25 16:23:00,78.0,67.0,29.79,NE,34,0.0,3.0,68,0.00,,,0.01,weatherlink.com 1.10,2013-09-25 21:23:00,
2013-09-25 16:38:00,78.0,67.0,29.79,NE,43,3.0,3.0,68,0.00,,,0.01,weatherlink.com 1.10,2013-09-25 21:38:00,
2013-09-25 16:53:00,77.8,67.0,29.79,NE,42,1.0,2.0,69,0.00,,,0.01,weatherlink.com 1.10,2013-09-25 21:53:00,
2013-09-25 17:08:00,77.3,66.0,29.79,NNE,23,0.0,4.0,68,0.00,,,0.01,weatherlink.com 1.10,2013-09-25 22:08:00,
2013-09-25 17:23:00,76.9,66.0,29.80,NE,47,0.0,3.0,69,0.00,,,0.01,weatherlink.com 1.10,2013-09-25 22:23:00,
2013-09-25 17:38:00,76.2,68.0,29.80,NE,43,0.0,2.0,76,0.00,,,0.01,weatherlink.com 1.10,2013-09-25 22:38:00,
2013-09-25 17:53:00,75.2,68.0,29.80,NE,43,0.0,3.0,77,0.00,,,0.01,weatherlink.com 1.10,2013-09-25 22:53:00,
2013-09-25 18:08:00,73.9,67.0,29.81,NE,43,0.0,1.0,80,0.00,,,0.01,weatherlink.com 1.10,2013-09-25 23:08:00,
2013-09-25 18:23:00,73.0,67.0,29.81,NE,43,0.0,0.0,82,0.00,,,0.01,weatherlink.com 1.10,2013-09-25 23:23:00,
2013-09-25 18:38:00,72.1,67.0,29.81,NE,43,0.0,0.0,83,0.00,,,0.01,weatherlink.com 1.10,2013-09-25 23:38:00,
2013-09-25 18:53:00,71.2,67.0,29.81,NE,43,0.0,0.0,85,0.00,,,0.01,weatherlink.com 1.10,2013-09-25 23:53:00,
2013-09-25 19:08:00,70.0,66.0,29.81,NE,43,0.0,0.0,86,0.00,,,0.01,weatherlink.com 1.10,2013-09-26 00:08:00,
2013-09-25 19:23:00,68.9,65.0,29.81,NE,43,0.0,0.0,87,0.00,,,0.01,weatherlink.com 1.10,2013-09-26 00:23:00,
2013-09-25 19:38:00,68.1,65.0,29.82,NE,43,0.0,0.0,88,0.00,,,0.01,weatherlink.com 1.10,2013-09-26 00:38:00,
2013-09-25 19:53:00,67.4,64.0,29.82,NE,43,0.0,0.0,89,0.00,,,0.01,weatherlink.com 1.10,2013-09-26 00:53:00,
2013-09-25 20:08:00,66.6,63.0,29.83,NE,43,0.0,0.0,89,0.00,,,0.01,weatherlink.com 1.10,2013-09-26 01:08:00,
2013-09-25 20:23:00,65.9,63.0,29.83,NE,43,0.0,0.0,90,0.00,,,0.01,weatherlink.com 1.10,2013-09-26 01:23:00,
2013-09-25 20:38:00,65.5,63.0,29.83,NE,43,0.0,0.0,91,0.00,,,0.01,weatherlink.com 1.10,2013-09-26 01:38:00,
2013-09-25 20:53:00,65.1,63.0,29.84,NE,43,0.0,0.0,91,0.00,,,0.01,weatherlink.com 1.10,2013-09-26 01:53:00,
2013-09-25 21:08:00,64.7,62.0,29.84,NE,43,0.0,0.0,91,0.00,,,0.01,weatherlink.com 1.10,2013-09-26 02:08:00,
2013-09-25 21:23:00,64.2,62.0,29.84,NE,43,0.0,0.0,91,0.00,,,0.01,weatherlink.com 1.10,2013-09-26 02:23:00,
2013-09-25 21:38:00,63.7,61.0,29.84,NE,43,0.0,0.0,91,0.00,,,0.01,weatherlink.com 1.10,2013-09-26 02:38:00,
2013-09-25 21:53:00,63.2,61.0,29.85,NE,43,0.0,0.0,92,0.00,,,0.01,weatherlink.com 1.10,2013-09-26 02:53:00,
2013-09-25 22:08:00,63.0,61.0,29.84,NE,43,0.0,0.0,92,0.00,,,0.01,weatherlink.com 1.10,2013-09-26 03:08:00,
2013-09-25 22:23:00,62.7,60.0,29.85,NE,43,0.0,0.0,92,0.00,,,0.01,weatherlink.com 1.10,2013-09-26 03:23:00,
2013-09-25 22:38:00,62.4,60.0,29.85,NE,43,0.0,0.0,92,0.00,,,0.01,weatherlink.com 1.10,2013-09-26 03:38:00,
2013-09-25 22:53:00,62.2,60.0,29.85,NE,43,0.0,0.0,92,0.00,,,0.01,weatherlink.com 1.10,2013-09-26 03:53:00,
2013-09-25 23:08:00,61.9,60.0,29.86,NE,43,0.0,0.0,92,0.00,,,0.01,weatherlink.com 1.10,2013-09-26 04:08:00,
2013-09-25 23:23:00,61.5,59.0,29.86,NE,43,0.0,0.0,92,0.00,,,0.01,weatherlink.com 1.10,2013-09-26 04:23:00,
2013-09-25 23:38:00,61.2,59.0,29.86,NE,43,0.0,0.0,93,0.00,,,0.01,weatherlink.com 1.10,2013-09-26 04:38:00,
2013-09-25 23:53:00,60.9,59.0,29.86,NE,43,0.0,0.0,93,0.00,,,0.01,weatherlink.com 1.10,2013-09-26 04:53:00,